sensor_id;sensor_type;location;lat;lon;timestamp;temperature;humidity
29663;DHT22;16578;53.266;7.920;2024-01-27T00:01:42;8.20;80.50
29663;DHT22;16578;53.266;7.920;2024-01-27T00:04:08;8.20;80.50
29663;DHT22;16578;53.266;7.920;2024-01-27T00:06:33;8.20;80.50
29663;DHT22;16578;53.266;7.920;2024-01-27T00:08:59;8.20;80.50
29663;DHT22;16578;53.266;7.920;2024-01-27T00:11:25;8.20;80.50
29663;DHT22;16578;53.266;7.920;2024-01-27T00:13:50;8.20;80.60
29663;DHT22;16578;53.266;7.920;2024-01-27T00:16:16;8.20;80.70
29663;DHT22;16578;53.266;7.920;2024-01-27T00:18:41;8.20;80.70
29663;DHT22;16578;53.266;7.920;2024-01-27T00:21:07;8.20;80.60
29663;DHT22;16578;53.266;7.920;2024-01-27T00:23:33;8.20;80.70
29663;DHT22;16578;53.266;7.920;2024-01-27T00:26:02;8.20;80.70
29663;DHT22;16578;53.266;7.920;2024-01-27T00:28:29;8.20;80.70
29663;DHT22;16578;53.266;7.920;2024-01-27T00:30:54;8.10;80.80
29663;DHT22;16578;53.266;7.920;2024-01-27T00:33:21;8.10;80.70
29663;DHT22;16578;53.266;7.920;2024-01-27T00:35:47;8.10;80.80
29663;DHT22;16578;53.266;7.920;2024-01-27T00:38:12;8.10;80.80
29663;DHT22;16578;53.266;7.920;2024-01-27T00:40:38;8.10;80.80
29663;DHT22;16578;53.266;7.920;2024-01-27T00:43:04;8.10;80.80
29663;DHT22;16578;53.266;7.920;2024-01-27T00:45:30;8.10;80.80
29663;DHT22;16578;53.266;7.920;2024-01-27T00:47:56;8.10;80.80
29663;DHT22;16578;53.266;7.920;2024-01-27T00:50:22;8.00;80.80
29663;DHT22;16578;53.266;7.920;2024-01-27T00:52:47;8.10;80.80
29663;DHT22;16578;53.266;7.920;2024-01-27T00:55:13;8.00;80.80
29663;DHT22;16578;53.266;7.920;2024-01-27T00:57:39;8.00;80.90
29663;DHT22;16578;53.266;7.920;2024-01-27T01:00:08;8.00;80.90
29663;DHT22;16578;53.266;7.920;2024-01-27T01:02:35;8.00;80.90
29663;DHT22;16578;53.266;7.920;2024-01-27T01:05:01;8.00;80.90
29663;DHT22;16578;53.266;7.920;2024-01-27T01:07:27;8.00;80.90
29663;DHT22;16578;53.266;7.920;2024-01-27T01:09:52;8.00;80.90
29663;DHT22;16578;53.266;7.920;2024-01-27T01:12:18;8.00;80.90
29663;DHT22;16578;53.266;7.920;2024-01-27T01:14:44;8.00;81.00
29663;DHT22;16578;53.266;7.920;2024-01-27T01:17:09;7.90;80.90
29663;DHT22;16578;53.266;7.920;2024-01-27T01:19:37;7.90;81.00
29663;DHT22;16578;53.266;7.920;2024-01-27T01:22:04;7.90;81.10
29663;DHT22;16578;53.266;7.920;2024-01-27T01:24:30;7.90;81.00
29663;DHT22;16578;53.266;7.920;2024-01-27T01:26:55;7.90;81.00
29663;DHT22;16578;53.266;7.920;2024-01-27T01:29:21;7.90;81.10
29663;DHT22;16578;53.266;7.920;2024-01-27T01:31:47;7.90;81.10
29663;DHT22;16578;53.266;7.920;2024-01-27T01:34:13;7.90;81.20
29663;DHT22;16578;53.266;7.920;2024-01-27T01:36:38;7.90;81.30
29663;DHT22;16578;53.266;7.920;2024-01-27T01:39:04;7.90;81.30
29663;DHT22;16578;53.266;7.920;2024-01-27T01:41:30;7.90;81.40
29663;DHT22;16578;53.266;7.920;2024-01-27T01:43:55;7.90;81.30
29663;DHT22;16578;53.266;7.920;2024-01-27T01:46:22;7.90;81.30
29663;DHT22;16578;53.266;7.920;2024-01-27T01:48:49;7.90;81.20
29663;DHT22;16578;53.266;7.920;2024-01-27T01:51:16;7.90;81.30
29663;DHT22;16578;53.266;7.920;2024-01-27T01:53:42;7.90;81.30
29663;DHT22;16578;53.266;7.920;2024-01-27T01:56:08;7.90;81.40
29663;DHT22;16578;53.266;7.920;2024-01-27T01:58:34;7.90;81.40
29663;DHT22;16578;53.266;7.920;2024-01-27T02:01:00;7.80;81.40
29663;DHT22;16578;53.266;7.920;2024-01-27T02:03:27;7.80;81.40
29663;DHT22;16578;53.266;7.920;2024-01-27T02:05:52;7.90;81.40
29663;DHT22;16578;53.266;7.920;2024-01-27T02:08:18;7.80;81.40
29663;DHT22;16578;53.266;7.920;2024-01-27T02:10:43;7.80;81.40
29663;DHT22;16578;53.266;7.920;2024-01-27T02:13:20;7.80;81.40
29663;DHT22;16578;53.266;7.920;2024-01-27T02:15:47;7.80;81.40
29663;DHT22;16578;53.266;7.920;2024-01-27T02:18:13;7.80;81.40
29663;DHT22;16578;53.266;7.920;2024-01-27T02:20:39;7.80;81.40
29663;DHT22;16578;53.266;7.920;2024-01-27T02:23:05;7.90;81.60
29663;DHT22;16578;53.266;7.920;2024-01-27T02:25:31;7.80;81.50
29663;DHT22;16578;53.266;7.920;2024-01-27T02:27:57;7.80;81.50
29663;DHT22;16578;53.266;7.920;2024-01-27T02:30:22;7.80;81.50
29663;DHT22;16578;53.266;7.920;2024-01-27T02:32:48;7.90;81.60
29663;DHT22;16578;53.266;7.920;2024-01-27T02:35:14;7.80;81.60
29663;DHT22;16578;53.266;7.920;2024-01-27T02:37:40;7.80;81.50
29663;DHT22;16578;53.266;7.920;2024-01-27T02:40:07;7.90;81.60
29663;DHT22;16578;53.266;7.920;2024-01-27T02:42:33;7.80;81.50
29663;DHT22;16578;53.266;7.920;2024-01-27T02:44:58;7.80;81.50
29663;DHT22;16578;53.266;7.920;2024-01-27T02:47:24;7.80;81.50
29663;DHT22;16578;53.266;7.920;2024-01-27T02:49:49;7.80;81.50
29663;DHT22;16578;53.266;7.920;2024-01-27T02:52:15;7.80;81.50
29663;DHT22;16578;53.266;7.920;2024-01-27T02:54:41;7.80;81.50
29663;DHT22;16578;53.266;7.920;2024-01-27T02:57:06;7.80;81.50
29663;DHT22;16578;53.266;7.920;2024-01-27T02:59:32;7.80;81.50
29663;DHT22;16578;53.266;7.920;2024-01-27T03:01:58;7.80;81.50
29663;DHT22;16578;53.266;7.920;2024-01-27T03:04:23;7.70;81.50
29663;DHT22;16578;53.266;7.920;2024-01-27T03:06:49;7.80;81.60
29663;DHT22;16578;53.266;7.920;2024-01-27T03:09:15;7.70;81.50
29663;DHT22;16578;53.266;7.920;2024-01-27T03:11:40;7.70;81.60
29663;DHT22;16578;53.266;7.920;2024-01-27T03:14:06;7.80;81.70
29663;DHT22;16578;53.266;7.920;2024-01-27T03:16:32;7.70;81.60
29663;DHT22;16578;53.266;7.920;2024-01-27T03:18:58;7.70;81.60
29663;DHT22;16578;53.266;7.920;2024-01-27T03:21:23;7.70;81.50
29663;DHT22;16578;53.266;7.920;2024-01-27T03:23:49;7.70;81.60
29663;DHT22;16578;53.266;7.920;2024-01-27T03:26:14;7.70;81.60
29663;DHT22;16578;53.266;7.920;2024-01-27T03:28:40;7.70;81.70
29663;DHT22;16578;53.266;7.920;2024-01-27T03:31:06;7.70;81.70
29663;DHT22;16578;53.266;7.920;2024-01-27T03:33:32;7.70;81.70
29663;DHT22;16578;53.266;7.920;2024-01-27T03:35:57;7.70;81.70
29663;DHT22;16578;53.266;7.920;2024-01-27T03:38:23;7.70;81.70
29663;DHT22;16578;53.266;7.920;2024-01-27T03:40:48;7.70;81.70
29663;DHT22;16578;53.266;7.920;2024-01-27T03:43:14;7.70;81.70
29663;DHT22;16578;53.266;7.920;2024-01-27T03:45:39;7.70;81.70
29663;DHT22;16578;53.266;7.920;2024-01-27T03:48:05;7.60;81.60
29663;DHT22;16578;53.266;7.920;2024-01-27T03:50:31;7.60;81.60
29663;DHT22;16578;53.266;7.920;2024-01-27T03:52:57;7.70;81.70
29663;DHT22;16578;53.266;7.920;2024-01-27T03:55:22;7.60;81.60
29663;DHT22;16578;53.266;7.920;2024-01-27T03:57:48;7.60;81.60
29663;DHT22;16578;53.266;7.920;2024-01-27T04:00:13;7.60;81.60
29663;DHT22;16578;53.266;7.920;2024-01-27T04:02:39;7.60;81.60
29663;DHT22;16578;53.266;7.920;2024-01-27T04:05:05;7.60;81.70
29663;DHT22;16578;53.266;7.920;2024-01-27T04:07:31;7.60;81.70
29663;DHT22;16578;53.266;7.920;2024-01-27T04:09:57;7.60;81.70
29663;DHT22;16578;53.266;7.920;2024-01-27T04:12:22;7.60;81.60
29663;DHT22;16578;53.266;7.920;2024-01-27T04:14:48;7.50;81.60
29663;DHT22;16578;53.266;7.920;2024-01-27T04:17:13;7.50;81.50
29663;DHT22;16578;53.266;7.920;2024-01-27T04:19:39;7.50;81.60
29663;DHT22;16578;53.266;7.920;2024-01-27T04:22:05;7.50;81.60
29663;DHT22;16578;53.266;7.920;2024-01-27T04:24:30;7.50;81.60
29663;DHT22;16578;53.266;7.920;2024-01-27T04:26:56;7.50;81.70
29663;DHT22;16578;53.266;7.920;2024-01-27T04:29:22;7.50;81.70
29663;DHT22;16578;53.266;7.920;2024-01-27T04:31:48;7.50;81.70
29663;DHT22;16578;53.266;7.920;2024-01-27T04:34:13;7.40;81.70
29663;DHT22;16578;53.266;7.920;2024-01-27T04:36:39;7.40;81.70
29663;DHT22;16578;53.266;7.920;2024-01-27T04:39:04;7.40;82.00
29663;DHT22;16578;53.266;7.920;2024-01-27T04:41:30;7.40;81.80
29663;DHT22;16578;53.266;7.920;2024-01-27T04:43:56;7.40;81.80
29663;DHT22;16578;53.266;7.920;2024-01-27T04:46:22;7.40;81.80
29663;DHT22;16578;53.266;7.920;2024-01-27T04:48:48;7.40;81.80
29663;DHT22;16578;53.266;7.920;2024-01-27T04:51:13;7.40;81.80
29663;DHT22;16578;53.266;7.920;2024-01-27T04:53:39;7.40;81.80
29663;DHT22;16578;53.266;7.920;2024-01-27T04:56:05;7.40;81.80
29663;DHT22;16578;53.266;7.920;2024-01-27T04:58:34;7.40;81.80
29663;DHT22;16578;53.266;7.920;2024-01-27T05:01:00;7.40;81.80
29663;DHT22;16578;53.266;7.920;2024-01-27T05:03:26;7.30;81.80
29663;DHT22;16578;53.266;7.920;2024-01-27T05:05:52;7.30;81.80
29663;DHT22;16578;53.266;7.920;2024-01-27T05:08:17;7.30;81.80
29663;DHT22;16578;53.266;7.920;2024-01-27T05:10:43;7.30;81.90
29663;DHT22;16578;53.266;7.920;2024-01-27T05:13:08;7.30;81.90
29663;DHT22;16578;53.266;7.920;2024-01-27T05:15:34;7.30;81.90
29663;DHT22;16578;53.266;7.920;2024-01-27T05:18:00;7.30;81.90
29663;DHT22;16578;53.266;7.920;2024-01-27T05:20:26;7.30;81.90
29663;DHT22;16578;53.266;7.920;2024-01-27T05:22:51;7.30;81.90
29663;DHT22;16578;53.266;7.920;2024-01-27T05:25:17;7.30;81.90
29663;DHT22;16578;53.266;7.920;2024-01-27T05:27:43;7.20;81.90
29663;DHT22;16578;53.266;7.920;2024-01-27T05:30:09;7.30;82.00
29663;DHT22;16578;53.266;7.920;2024-01-27T05:32:34;7.30;82.00
29663;DHT22;16578;53.266;7.920;2024-01-27T05:35:00;7.30;82.00
29663;DHT22;16578;53.266;7.920;2024-01-27T05:37:25;7.20;82.00
29663;DHT22;16578;53.266;7.920;2024-01-27T05:39:51;7.20;82.00
29663;DHT22;16578;53.266;7.920;2024-01-27T05:42:17;7.20;82.00
29663;DHT22;16578;53.266;7.920;2024-01-27T05:44:42;7.20;82.00
29663;DHT22;16578;53.266;7.920;2024-01-27T05:47:08;7.20;82.00
29663;DHT22;16578;53.266;7.920;2024-01-27T05:49:36;7.20;82.00
29663;DHT22;16578;53.266;7.920;2024-01-27T05:52:01;7.20;82.00
29663;DHT22;16578;53.266;7.920;2024-01-27T05:54:27;7.20;82.00
29663;DHT22;16578;53.266;7.920;2024-01-27T05:56:53;7.20;82.00
29663;DHT22;16578;53.266;7.920;2024-01-27T05:59:18;7.20;82.00
29663;DHT22;16578;53.266;7.920;2024-01-27T06:01:44;7.20;82.00
29663;DHT22;16578;53.266;7.920;2024-01-27T06:04:13;7.10;81.90
29663;DHT22;16578;53.266;7.920;2024-01-27T06:06:39;7.10;82.00
29663;DHT22;16578;53.266;7.920;2024-01-27T06:09:05;7.10;82.90
29663;DHT22;16578;53.266;7.920;2024-01-27T06:11:30;7.10;82.00
29663;DHT22;16578;53.266;7.920;2024-01-27T06:13:56;7.10;82.00
29663;DHT22;16578;53.266;7.920;2024-01-27T06:16:23;7.10;82.10
29663;DHT22;16578;53.266;7.920;2024-01-27T06:18:49;7.10;82.00
29663;DHT22;16578;53.266;7.920;2024-01-27T06:21:14;7.10;82.00
29663;DHT22;16578;53.266;7.920;2024-01-27T06:23:40;7.10;81.90
29663;DHT22;16578;53.266;7.920;2024-01-27T06:26:09;7.10;82.00
29663;DHT22;16578;53.266;7.920;2024-01-27T06:28:35;7.00;81.90
29663;DHT22;16578;53.266;7.920;2024-01-27T06:31:03;7.00;82.00
29663;DHT22;16578;53.266;7.920;2024-01-27T06:33:29;7.00;81.90
29663;DHT22;16578;53.266;7.920;2024-01-27T06:35:55;7.00;81.90
29663;DHT22;16578;53.266;7.920;2024-01-27T06:38:20;7.00;81.80
29663;DHT22;16578;53.266;7.920;2024-01-27T06:40:46;6.90;81.70
29663;DHT22;16578;53.266;7.920;2024-01-27T06:43:13;6.90;81.80
29663;DHT22;16578;53.266;7.920;2024-01-27T06:45:39;6.90;81.80
29663;DHT22;16578;53.266;7.920;2024-01-27T06:48:05;6.90;81.90
29663;DHT22;16578;53.266;7.920;2024-01-27T06:50:32;6.90;81.90
29663;DHT22;16578;53.266;7.920;2024-01-27T06:52:57;6.90;82.00
29663;DHT22;16578;53.266;7.920;2024-01-27T06:55:23;6.80;81.90
29663;DHT22;16578;53.266;7.920;2024-01-27T06:57:49;6.80;81.90
29663;DHT22;16578;53.266;7.920;2024-01-27T07:00:14;6.80;82.00
29663;DHT22;16578;53.266;7.920;2024-01-27T07:02:41;6.80;82.00
29663;DHT22;16578;53.266;7.920;2024-01-27T07:05:09;6.80;82.00
29663;DHT22;16578;53.266;7.920;2024-01-27T07:07:35;6.70;81.90
29663;DHT22;16578;53.266;7.920;2024-01-27T07:10:01;6.70;81.90
29663;DHT22;16578;53.266;7.920;2024-01-27T07:12:27;6.70;82.00
29663;DHT22;16578;53.266;7.920;2024-01-27T07:14:53;6.70;82.10
29663;DHT22;16578;53.266;7.920;2024-01-27T07:17:20;6.70;82.10
29663;DHT22;16578;53.266;7.920;2024-01-27T07:19:45;6.70;82.30
29663;DHT22;16578;53.266;7.920;2024-01-27T07:22:12;6.70;82.30
29663;DHT22;16578;53.266;7.920;2024-01-27T07:24:37;6.70;82.30
29663;DHT22;16578;53.266;7.920;2024-01-27T07:27:03;6.70;82.30
29663;DHT22;16578;53.266;7.920;2024-01-27T07:29:31;6.70;82.30
29663;DHT22;16578;53.266;7.920;2024-01-27T07:31:57;6.70;82.30
29663;DHT22;16578;53.266;7.920;2024-01-27T07:34:22;6.70;82.30
29663;DHT22;16578;53.266;7.920;2024-01-27T07:36:48;6.60;82.30
29663;DHT22;16578;53.266;7.920;2024-01-27T07:39:15;6.60;82.30
29663;DHT22;16578;53.266;7.920;2024-01-27T07:41:41;6.60;82.30
29663;DHT22;16578;53.266;7.920;2024-01-27T07:44:09;6.70;82.50
29663;DHT22;16578;53.266;7.920;2024-01-27T07:46:38;6.70;82.50
29663;DHT22;16578;53.266;7.920;2024-01-27T07:49:05;6.70;82.60
29663;DHT22;16578;53.266;7.920;2024-01-27T07:51:32;6.60;82.50
29663;DHT22;16578;53.266;7.920;2024-01-27T07:53:58;6.70;82.60
29663;DHT22;16578;53.266;7.920;2024-01-27T07:56:23;6.70;82.70
29663;DHT22;16578;53.266;7.920;2024-01-27T07:58:49;6.70;82.70
29663;DHT22;16578;53.266;7.920;2024-01-27T08:01:15;6.70;82.70
29663;DHT22;16578;53.266;7.920;2024-01-27T08:03:41;6.70;82.80
29663;DHT22;16578;53.266;7.920;2024-01-27T08:06:14;6.70;82.80
29663;DHT22;16578;53.266;7.920;2024-01-27T08:08:40;6.70;82.90
29663;DHT22;16578;53.266;7.920;2024-01-27T08:11:05;6.70;82.90
29663;DHT22;16578;53.266;7.920;2024-01-27T08:13:32;6.80;83.00
29663;DHT22;16578;53.266;7.920;2024-01-27T08:15:58;6.80;83.10
29663;DHT22;16578;53.266;7.920;2024-01-27T08:18:24;6.80;83.00
29663;DHT22;16578;53.266;7.920;2024-01-27T08:20:49;6.80;83.00
29663;DHT22;16578;53.266;7.920;2024-01-27T08:23:15;6.80;83.10
29663;DHT22;16578;53.266;7.920;2024-01-27T08:25:41;6.90;84.00
29663;DHT22;16578;53.266;7.920;2024-01-27T08:28:06;6.90;83.10
29663;DHT22;16578;53.266;7.920;2024-01-27T08:30:32;6.90;83.20
29663;DHT22;16578;53.266;7.920;2024-01-27T08:32:57;7.00;83.20
29663;DHT22;16578;53.266;7.920;2024-01-27T08:35:23;7.00;83.20
29663;DHT22;16578;53.266;7.920;2024-01-27T08:37:49;7.00;83.30
29663;DHT22;16578;53.266;7.920;2024-01-27T08:40:14;7.00;83.40
29663;DHT22;16578;53.266;7.920;2024-01-27T08:42:42;7.10;83.40
29663;DHT22;16578;53.266;7.920;2024-01-27T08:45:08;7.10;83.40
29663;DHT22;16578;53.266;7.920;2024-01-27T08:47:33;7.10;83.50
29663;DHT22;16578;53.266;7.920;2024-01-27T08:49:59;7.20;83.50
29663;DHT22;16578;53.266;7.920;2024-01-27T08:52:24;7.20;83.40
29663;DHT22;16578;53.266;7.920;2024-01-27T08:54:50;7.20;83.50
29663;DHT22;16578;53.266;7.920;2024-01-27T08:57:15;7.30;83.50
29663;DHT22;16578;53.266;7.920;2024-01-27T08:59:41;7.30;84.40
29663;DHT22;16578;53.266;7.920;2024-01-27T09:02:07;7.40;83.60
29663;DHT22;16578;53.266;7.920;2024-01-27T09:04:32;7.40;83.40
29663;DHT22;16578;53.266;7.920;2024-01-27T09:06:58;7.40;83.40
29663;DHT22;16578;53.266;7.920;2024-01-27T09:09:23;7.40;83.40
29663;DHT22;16578;53.266;7.920;2024-01-27T09:11:49;7.50;83.50
29663;DHT22;16578;53.266;7.920;2024-01-27T09:14:15;7.50;83.40
29663;DHT22;16578;53.266;7.920;2024-01-27T09:16:41;7.50;83.40
29663;DHT22;16578;53.266;7.920;2024-01-27T09:19:07;7.60;83.40
29663;DHT22;16578;53.266;7.920;2024-01-27T09:21:33;7.60;83.40
29663;DHT22;16578;53.266;7.920;2024-01-27T09:23:59;7.70;83.40
29663;DHT22;16578;53.266;7.920;2024-01-27T09:26:26;7.70;83.40
29663;DHT22;16578;53.266;7.920;2024-01-27T09:28:52;7.70;83.40
29663;DHT22;16578;53.266;7.920;2024-01-27T09:31:23;7.80;83.30
29663;DHT22;16578;53.266;7.920;2024-01-27T09:33:50;7.80;83.30
29663;DHT22;16578;53.266;7.920;2024-01-27T09:36:17;7.80;83.30
29663;DHT22;16578;53.266;7.920;2024-01-27T09:38:42;7.80;83.20
29663;DHT22;16578;53.266;7.920;2024-01-27T09:41:08;7.90;83.30
29663;DHT22;16578;53.266;7.920;2024-01-27T09:43:35;7.90;83.40
29663;DHT22;16578;53.266;7.920;2024-01-27T09:46:02;7.90;83.20
29663;DHT22;16578;53.266;7.920;2024-01-27T09:48:29;8.00;83.30
29663;DHT22;16578;53.266;7.920;2024-01-27T09:50:58;8.10;83.20
29663;DHT22;16578;53.266;7.920;2024-01-27T09:53:23;8.10;83.20
29663;DHT22;16578;53.266;7.920;2024-01-27T09:55:49;8.00;83.30
29663;DHT22;16578;53.266;7.920;2024-01-27T09:58:15;8.10;83.20
29663;DHT22;16578;53.266;7.920;2024-01-27T10:00:41;8.20;83.20
29663;DHT22;16578;53.266;7.920;2024-01-27T10:03:08;8.20;83.20
29663;DHT22;16578;53.266;7.920;2024-01-27T10:05:34;8.20;83.20
29663;DHT22;16578;53.266;7.920;2024-01-27T10:08:01;8.30;83.20
29663;DHT22;16578;53.266;7.920;2024-01-27T10:10:26;8.30;83.20
29663;DHT22;16578;53.266;7.920;2024-01-27T10:12:52;8.30;83.10
29663;DHT22;16578;53.266;7.920;2024-01-27T10:15:21;8.40;83.10
29663;DHT22;16578;53.266;7.920;2024-01-27T10:17:48;8.40;83.00
29663;DHT22;16578;53.266;7.920;2024-01-27T10:20:13;8.40;83.00
29663;DHT22;16578;53.266;7.920;2024-01-27T10:22:45;8.40;83.00
29663;DHT22;16578;53.266;7.920;2024-01-27T10:25:11;8.50;83.00
29663;DHT22;16578;53.266;7.920;2024-01-27T10:27:37;8.50;83.00
29663;DHT22;16578;53.266;7.920;2024-01-27T10:30:04;8.50;83.00
29663;DHT22;16578;53.266;7.920;2024-01-27T10:32:30;8.60;83.00
29663;DHT22;16578;53.266;7.920;2024-01-27T10:35:05;8.60;82.90
29663;DHT22;16578;53.266;7.920;2024-01-27T10:37:37;8.70;82.90
29663;DHT22;16578;53.266;7.920;2024-01-27T10:40:07;8.70;83.00
29663;DHT22;16578;53.266;7.920;2024-01-27T10:42:36;8.70;82.90
29663;DHT22;16578;53.266;7.920;2024-01-27T10:45:03;8.70;83.80
29663;DHT22;16578;53.266;7.920;2024-01-27T10:47:30;8.70;82.90
29663;DHT22;16578;53.266;7.920;2024-01-27T10:49:57;8.80;83.00
29663;DHT22;16578;53.266;7.920;2024-01-27T10:52:32;8.80;82.90
29663;DHT22;16578;53.266;7.920;2024-01-27T10:54:59;8.90;83.00
29663;DHT22;16578;53.266;7.920;2024-01-27T10:57:26;8.90;83.00
29663;DHT22;16578;53.266;7.920;2024-01-27T10:59:53;8.90;83.00
29663;DHT22;16578;53.266;7.920;2024-01-27T11:02:20;9.00;82.80
29663;DHT22;16578;53.266;7.920;2024-01-27T11:04:48;9.00;82.90
29663;DHT22;16578;53.266;7.920;2024-01-27T11:07:13;9.00;82.90
29663;DHT22;16578;53.266;7.920;2024-01-27T11:09:39;9.10;82.90
29663;DHT22;16578;53.266;7.920;2024-01-27T11:12:06;9.10;82.90
29663;DHT22;16578;53.266;7.920;2024-01-27T11:14:33;9.10;82.80
29663;DHT22;16578;53.266;7.920;2024-01-27T11:16:58;9.20;82.90
29663;DHT22;16578;53.266;7.920;2024-01-27T11:19:24;9.20;82.90
29663;DHT22;16578;53.266;7.920;2024-01-27T11:22:02;9.30;82.90
29663;DHT22;16578;53.266;7.920;2024-01-27T11:24:28;9.30;82.70
29663;DHT22;16578;53.266;7.920;2024-01-27T11:27:03;9.30;82.90
29663;DHT22;16578;53.266;7.920;2024-01-27T11:29:29;9.40;82.80
29663;DHT22;16578;53.266;7.920;2024-01-27T11:31:59;9.40;82.70
29663;DHT22;16578;53.266;7.920;2024-01-27T11:34:25;9.50;82.80
29663;DHT22;16578;53.266;7.920;2024-01-27T11:36:50;9.50;82.80
29663;DHT22;16578;53.266;7.920;2024-01-27T11:39:31;9.60;82.80
29663;DHT22;16578;53.266;7.920;2024-01-27T11:42:10;9.70;82.80
29663;DHT22;16578;53.266;7.920;2024-01-27T11:44:39;9.70;82.70
29663;DHT22;16578;53.266;7.920;2024-01-27T11:47:05;9.70;83.70
29663;DHT22;16578;53.266;7.920;2024-01-27T11:49:38;9.80;82.80
29663;DHT22;16578;53.266;7.920;2024-01-27T11:52:06;9.80;82.80
29663;DHT22;16578;53.266;7.920;2024-01-27T11:54:32;9.90;82.70
29663;DHT22;16578;53.266;7.920;2024-01-27T11:56:57;9.90;82.60
29663;DHT22;16578;53.266;7.920;2024-01-27T11:59:23;10.00;82.60
29663;DHT22;16578;53.266;7.920;2024-01-27T12:01:49;10.00;82.40
29663;DHT22;16578;53.266;7.920;2024-01-27T12:04:15;10.10;82.40
29663;DHT22;16578;53.266;7.920;2024-01-27T12:06:43;10.10;82.30
29663;DHT22;16578;53.266;7.920;2024-01-27T12:09:09;10.20;82.20
29663;DHT22;16578;53.266;7.920;2024-01-27T12:11:38;10.20;82.00
29663;DHT22;16578;53.266;7.920;2024-01-27T12:14:07;10.20;81.90
29663;DHT22;16578;53.266;7.920;2024-01-27T12:16:33;10.20;81.90
29663;DHT22;16578;53.266;7.920;2024-01-27T12:18:58;10.30;81.90
29663;DHT22;16578;53.266;7.920;2024-01-27T12:21:25;10.30;81.90
29663;DHT22;16578;53.266;7.920;2024-01-27T12:26:16;10.30;81.70
29663;DHT22;16578;53.266;7.920;2024-01-27T12:28:45;10.40;81.70
29663;DHT22;16578;53.266;7.920;2024-01-27T12:31:11;10.40;81.50
29663;DHT22;16578;53.266;7.920;2024-01-27T12:33:37;10.40;81.50
29663;DHT22;16578;53.266;7.920;2024-01-27T12:36:02;10.40;81.40
29663;DHT22;16578;53.266;7.920;2024-01-27T12:38:33;10.50;81.50
29663;DHT22;16578;53.266;7.920;2024-01-27T12:40:58;10.50;81.40
29663;DHT22;16578;53.266;7.920;2024-01-27T12:43:24;10.50;81.20
29663;DHT22;16578;53.266;7.920;2024-01-27T12:45:50;10.50;81.20
29663;DHT22;16578;53.266;7.920;2024-01-27T12:48:15;10.50;81.10
29663;DHT22;16578;53.266;7.920;2024-01-27T12:50:41;10.60;81.10
29663;DHT22;16578;53.266;7.920;2024-01-27T12:53:07;10.60;81.00
29663;DHT22;16578;53.266;7.920;2024-01-27T12:55:33;10.60;80.90
29663;DHT22;16578;53.266;7.920;2024-01-27T12:57:58;10.60;80.90
29663;DHT22;16578;53.266;7.920;2024-01-27T13:00:24;10.60;80.90
29663;DHT22;16578;53.266;7.920;2024-01-27T13:02:50;10.60;80.80
29663;DHT22;16578;53.266;7.920;2024-01-27T13:05:15;10.60;80.70
29663;DHT22;16578;53.266;7.920;2024-01-27T13:07:41;10.60;80.70
29663;DHT22;16578;53.266;7.920;2024-01-27T13:10:07;10.70;80.60
29663;DHT22;16578;53.266;7.920;2024-01-27T13:12:33;10.70;80.60
29663;DHT22;16578;53.266;7.920;2024-01-27T13:14:59;10.70;80.60
29663;DHT22;16578;53.266;7.920;2024-01-27T13:17:24;10.70;80.50
29663;DHT22;16578;53.266;7.920;2024-01-27T13:19:50;10.70;80.50
29663;DHT22;16578;53.266;7.920;2024-01-27T13:22:16;10.70;80.40
29663;DHT22;16578;53.266;7.920;2024-01-27T13:24:41;10.80;80.40
29663;DHT22;16578;53.266;7.920;2024-01-27T13:27:07;10.80;80.30
29663;DHT22;16578;53.266;7.920;2024-01-27T13:29:34;10.80;80.30
29663;DHT22;16578;53.266;7.920;2024-01-27T13:31:59;10.80;80.30
29663;DHT22;16578;53.266;7.920;2024-01-27T13:34:27;10.80;80.20
29663;DHT22;16578;53.266;7.920;2024-01-27T13:36:55;10.80;80.20
29663;DHT22;16578;53.266;7.920;2024-01-27T13:39:21;10.70;80.10
29663;DHT22;16578;53.266;7.920;2024-01-27T13:41:47;10.80;80.20
29663;DHT22;16578;53.266;7.920;2024-01-27T13:44:12;10.80;80.00
29663;DHT22;16578;53.266;7.920;2024-01-27T13:46:38;10.80;79.90
29663;DHT22;16578;53.266;7.920;2024-01-27T13:49:03;10.90;79.90
29663;DHT22;16578;53.266;7.920;2024-01-27T13:51:29;10.90;79.90
29663;DHT22;16578;53.266;7.920;2024-01-27T13:53:55;10.90;79.90
29663;DHT22;16578;53.266;7.920;2024-01-27T13:56:20;10.90;79.90
29663;DHT22;16578;53.266;7.920;2024-01-27T13:58:46;10.90;79.80
29663;DHT22;16578;53.266;7.920;2024-01-27T14:01:12;10.90;79.70
29663;DHT22;16578;53.266;7.920;2024-01-27T14:03:38;10.90;79.60
29663;DHT22;16578;53.266;7.920;2024-01-27T14:06:04;10.90;79.60
29663;DHT22;16578;53.266;7.920;2024-01-27T14:08:30;10.90;79.50
29663;DHT22;16578;53.266;7.920;2024-01-27T14:10:56;10.90;79.50
29663;DHT22;16578;53.266;7.920;2024-01-27T14:13:21;10.90;79.40
29663;DHT22;16578;53.266;7.920;2024-01-27T14:15:47;10.90;79.40
29663;DHT22;16578;53.266;7.920;2024-01-27T14:18:13;10.90;79.40
29663;DHT22;16578;53.266;7.920;2024-01-27T14:20:46;11.00;79.50
29663;DHT22;16578;53.266;7.920;2024-01-27T14:23:12;10.90;79.40
29663;DHT22;16578;53.266;7.920;2024-01-27T14:25:37;10.90;79.20
29663;DHT22;16578;53.266;7.920;2024-01-27T14:28:03;10.90;79.20
29663;DHT22;16578;53.266;7.920;2024-01-27T14:30:32;10.90;79.20
29663;DHT22;16578;53.266;7.920;2024-01-27T14:32:58;10.90;79.20
29663;DHT22;16578;53.266;7.920;2024-01-27T14:35:23;10.90;79.10
29663;DHT22;16578;53.266;7.920;2024-01-27T14:37:51;11.00;79.10
29663;DHT22;16578;53.266;7.920;2024-01-27T14:40:16;10.90;79.00
29663;DHT22;16578;53.266;7.920;2024-01-27T14:42:44;10.90;78.90
29663;DHT22;16578;53.266;7.920;2024-01-27T14:45:12;10.90;79.00
29663;DHT22;16578;53.266;7.920;2024-01-27T14:47:37;10.90;79.00
29663;DHT22;16578;53.266;7.920;2024-01-27T14:50:04;10.90;79.00
29663;DHT22;16578;53.266;7.920;2024-01-27T14:52:31;10.90;78.80
29663;DHT22;16578;53.266;7.920;2024-01-27T14:54:57;10.90;78.80
29663;DHT22;16578;53.266;7.920;2024-01-27T14:57:23;10.90;78.80
29663;DHT22;16578;53.266;7.920;2024-01-27T14:59:49;10.90;78.80
29663;DHT22;16578;53.266;7.920;2024-01-27T15:02:15;10.90;78.80
29663;DHT22;16578;53.266;7.920;2024-01-27T15:04:40;10.80;78.70
29663;DHT22;16578;53.266;7.920;2024-01-27T15:07:07;10.80;78.70
29663;DHT22;16578;53.266;7.920;2024-01-27T15:09:33;10.80;78.70
29663;DHT22;16578;53.266;7.920;2024-01-27T15:11:58;10.80;78.60
29663;DHT22;16578;53.266;7.920;2024-01-27T15:14:24;10.80;78.60
29663;DHT22;16578;53.266;7.920;2024-01-27T15:16:49;10.80;78.50
29663;DHT22;16578;53.266;7.920;2024-01-27T15:19:15;10.70;79.30
29663;DHT22;16578;53.266;7.920;2024-01-27T15:21:41;10.70;78.40
29663;DHT22;16578;53.266;7.920;2024-01-27T15:24:07;10.70;78.40
29663;DHT22;16578;53.266;7.920;2024-01-27T15:26:33;10.70;78.40
29663;DHT22;16578;53.266;7.920;2024-01-27T15:28:58;10.70;78.40
29663;DHT22;16578;53.266;7.920;2024-01-27T15:31:24;10.60;78.30
29663;DHT22;16578;53.266;7.920;2024-01-27T15:33:51;10.60;78.40
29663;DHT22;16578;53.266;7.920;2024-01-27T15:36:16;10.60;78.40
29663;DHT22;16578;53.266;7.920;2024-01-27T15:38:42;10.60;78.40